Hlavní strana
METAR-TAF:

METAR-TAF

Letiště :

Rønne, Dánsko

zeměpisná šířka: 55-04N, zeměpisná délka: 014-45E, výška: 16 m

Aktuální stav počasí

Zpráva byla vytvořena před 34 minutami, v 08:50 UTC
Severní vítr 3 kt
Teplota 2°C
Vlhkost vzduchu 100%
Tlak 1016 hPa
Viditelnost 10 km a více
slabé dešťové přeháňky

METAR: EKRN 040850Z AUTO 36003KT 9999 -SHRA OVC010/// 02/02 Q1016

Čas: 10:24 (09:24 UTC)

Předpověď počasí

Zpráva byla vytvořena před 1 hodinou a 0 minutami, v 08:24 UTC
Předpověď platná od 04 v 09 UTC do 04 v 18 UTC
Severní vítr 10 kt
Viditelnost 10 km a více
Skoro jasno ve výšce 1000 ft
Oblačno až skoro zataženo ve výšce 2000 ft

TAF: EKRN 040824Z 0409/0418 36010KT 9999 FEW010 BKN020

Stav a předpovědi počasí z více než 4 000 letišť (zprávy METAR a TAF).

Červené a žluté tečky na mapě představují dostupné meteorologické stanice.

Když kurzor umístíte na tečku, zobrazí se název stanice.

Pak kliknutím zobrazíte stav a předpověď počasí.

Chcete-li změnit mapu, kliknutím na zelené tlačítko se znaménkem +mapu přiblížíte, kliknutím na zelené tlačítko se znaménkem – mapu oddálíte a kliknutím na zelené šipky přejdete na sousední mapy.


METAR-TAF: